Aviation Digital Data Service (ADDS)

Output produced by METARs form (2139 UTC 17 April 2014)
found at http://aviationweather.gov/adds/metars/
 
KLFT 172053Z AUTO 07005KT 10SM SCT120 18/13 A3011 RMK AO2 SLP194 T01780128 58020